Time;durP1;ratioP1;P1;durP2;ratioP2;P2;SDS_P1;SDS_P2;PMS_P1;PMS_P2;Temp;Humidity;BMP_temperature;BMP_pressure;BME280_temperature;BME280_humidity;BME280_pressure;Samples;Min_cycle;Max_cycle;Signal;HPM_P1;HPM_P2
2023/03/17 00:00:09;;;;;;;4.23;2.33;;;;;;;4.44;nan;-23940.47;5012223;28;20219;-75
2023/03/17 00:02:35;;;;;;;2.53;2.10;;;;;;;4.72;nan;-23948.44;5014524;28;20357;-74
2023/03/17 00:05:01;;;;;;;2.17;2.03;;;;;;;4.33;nan;-23937.47;5014440;28;20187;-74
2023/03/17 00:07:27;;;;;;;2.90;1.93;;;;;;;4.79;nan;-23950.28;5015065;28;20313;-72
2023/03/17 00:09:53;;;;;;;3.10;1.93;;;;;;;4.53;nan;-23942.91;5014142;28;20287;-72
2023/03/17 00:12:18;;;;;;;2.10;1.97;;;;;;;4.31;nan;-23936.91;5013223;28;20179;-73
2023/03/17 00:14:45;;;;;;;4.93;2.10;;;;;;;4.71;nan;-23948.03;5014534;28;20200;-74
2023/03/17 00:17:13;;;;;;;1.80;1.70;;;;;;;4.39;nan;-23939.06;5014178;28;20544;-74
2023/03/17 00:19:40;;;;;;;2.23;2.03;;;;;;;4.41;nan;-23939.75;5013808;28;20198;-72
2023/03/17 00:22:15;;;;;;;2.20;1.90;;;;;;;4.84;nan;-23951.72;5029638;28;20189;-72
2023/03/17 00:24:41;;;;;;;2.07;1.83;;;;;;;4.81;nan;-23950.84;5014217;28;20177;-72
2023/03/17 00:27:12;;;;;;;1.90;1.80;;;;;;;4.43;nan;-23940.34;5009221;28;20204;-72
2023/03/17 00:29:38;;;;;;;2.67;2.17;;;;;;;4.82;nan;-23951.16;5013573;28;20693;-73
2023/03/17 00:32:05;;;;;;;3.23;2.70;;;;;;;4.84;nan;-23951.84;5013857;28;20186;-70
2023/03/17 00:34:31;;;;;;;2.90;2.50;;;;;;;4.58;nan;-23944.47;5015074;28;20176;-70
2023/03/17 00:36:56;;;;;;;2.40;2.20;;;;;;;4.63;nan;-23945.88;5029093;28;20180;-72
2023/03/17 00:39:24;;;;;;;2.33;2.13;;;;;;;4.90;nan;-23953.44;5014205;28;20172;-72
2023/03/17 00:41:49;;;;;;;3.30;2.13;;;;;;;4.78;nan;-23950.16;5013862;28;20594;-72
2023/03/17 00:44:14;;;;;;;2.30;1.97;;;;;;;4.82;nan;-23951.16;5013795;28;20171;-72
2023/03/17 00:46:40;;;;;;;1.97;1.87;;;;;;;4.34;nan;-23937.78;5013527;28;20571;-72
2023/03/17 00:49:18;;;;;;;2.57;2.20;;;;;;;4.66;nan;-23946.59;5013656;28;20283;-72
2023/03/17 00:51:44;;;;;;;5.87;2.30;;;;;;;4.37;nan;-23938.47;5013592;28;20685;-72
2023/03/17 00:54:11;;;;;;;3.13;2.20;;;;;;;4.56;nan;-23943.88;5028705;28;20647;-72
2023/03/17 00:56:38;;;;;;;5.50;2.23;;;;;;;4.39;nan;-23939.19;5013678;28;20226;-71
2023/03/17 00:59:04;;;;;;;2.87;1.90;;;;;;;4.37;nan;-23938.47;5013562;28;20167;-74
2023/03/17 01:01:30;;;;;;;2.53;2.33;;;;;;;4.43;nan;-23940.19;5013331;28;20173;-71
2023/03/17 01:03:56;;;;;;;2.70;2.00;;;;;;;4.36;nan;-23938.34;5011458;28;20242;-72
2023/03/17 01:06:21;;;;;;;2.30;1.90;;;;;;;4.68;nan;-23947.31;5008942;28;20172;-72
2023/03/17 01:08:47;;;;;;;2.40;2.13;;;;;;;4.40;nan;-23939.34;5013148;28;20254;-73
2023/03/17 01:11:17;;;;;;;4.00;2.57;;;;;;;4.66;nan;-23946.59;5010871;28;20310;-72
2023/03/17 01:13:43;;;;;;;2.30;2.10;;;;;;;4.35;nan;-23938.06;5013053;28;20271;-73
2023/03/17 01:16:10;;;;;;;2.23;2.03;;;;;;;4.51;nan;-23942.47;5011940;28;20239;-74
2023/03/17 01:18:35;;;;;;;2.80;2.27;;;;;;;4.72;nan;-23948.44;5013229;28;20255;-73
2023/03/17 01:21:01;;;;;;;2.37;2.17;;;;;;;4.82;nan;-23951.16;5013132;28;20635;-73
2023/03/17 01:23:26;;;;;;;1.70;1.60;;;;;;;4.77;nan;-23949.72;5013189;28;20594;-71
2023/03/17 01:25:52;;;;;;;2.00;1.80;;;;;;;4.77;nan;-23949.72;5028246;28;20179;-74
2023/03/17 01:28:19;;;;;;;2.00;1.90;;;;;;;4.90;nan;-23953.44;5027977;28;20590;-72
2023/03/17 01:30:44;;;;;;;1.60;1.50;;;;;;;4.43;nan;-23940.34;5013113;28;20222;-70
2023/03/17 01:33:11;;;;;;;6.77;1.80;;;;;;;4.53;nan;-23942.91;5013034;28;20255;-73
2023/03/17 01:35:39;;;;;;;2.70;2.23;;;;;;;4.70;nan;-23947.72;5013026;28;20196;-72
2023/03/17 01:38:05;;;;;;;1.93;1.80;;;;;;;4.81;nan;-23950.84;5012700;28;20176;-74
2023/03/17 01:40:33;;;;;;;2.20;1.80;;;;;;;4.68;nan;-23947.16;5012932;28;20275;-71
2023/03/17 01:43:07;;;;;;;2.47;2.20;;;;;;;4.93;nan;-23954.28;5012812;28;20179;-70
2023/03/17 01:46:13;;;;;;;2.77;2.20;;;;;;;4.95;nan;-23954.84;5006595;28;20195;-72
2023/03/17 01:48:47;;;;;;;3.77;2.10;;;;;;;4.64;nan;-23946.03;5012456;28;20559;-73
2023/03/17 01:51:18;;;;;;;2.40;2.20;;;;;;;4.80;nan;-23950.56;5012289;28;20227;-71
2023/03/17 01:53:47;;;;;;;2.30;2.03;;;;;;;4.94;nan;-23954.41;5012663;28;20184;-73
2023/03/17 01:56:14;;;;;;;1.83;1.73;;;;;;;4.69;nan;-23947.59;5012425;28;20176;-73
2023/03/17 01:58:40;;;;;;;2.10;1.90;;;;;;;4.94;nan;-23954.56;5012039;28;20609;-72
2023/03/17 02:01:06;;;;;;;1.77;1.67;;;;;;;5.11;nan;-23959.41;5012626;28;20176;-71
2023/03/17 02:03:33;;;;;;;1.63;1.53;;;;;;;4.80;nan;-23950.72;5012312;28;20172;-71
2023/03/17 02:06:00;;;;;;;3.67;1.80;;;;;;;5.14;nan;-23960.25;5012230;28;20179;-72
2023/03/17 02:08:26;;;;;;;1.80;1.70;;;;;;;4.81;nan;-23950.84;5012206;28;20267;-72
2023/03/17 02:10:52;;;;;;;2.73;2.00;;;;;;;4.87;nan;-23952.72;5012350;28;20633;-71
2023/03/17 02:13:18;;;;;;;2.53;1.70;;;;;;;4.89;nan;-23953.13;5012069;28;20180;-74
2023/03/17 02:15:49;;;;;;;1.60;1.50;;;;;;;4.82;nan;-23951.16;5012050;28;20179;-71
2023/03/17 02:18:17;;;;;;;2.23;2.07;;;;;;;5.20;nan;-23961.97;5012168;28;20176;-74
2023/03/17 02:20:45;;;;;;;1.70;1.60;;;;;;;5.20;nan;-23961.81;5005818;28;20189;-74
2023/03/17 02:23:15;;;;;;;2.73;2.07;;;;;;;4.77;nan;-23949.72;5011809;28;20257;-73
2023/03/17 02:25:44;;;;;;;2.50;1.87;;;;;;;5.09;nan;-23958.69;5012066;28;20721;-72
2023/03/17 02:28:15;;;;;;;1.50;1.40;;;;;;;4.88;nan;-23952.84;5011938;28;20182;-72
2023/03/17 02:30:41;;;;;;;1.53;1.43;;;;;;;5.01;nan;-23956.56;5011848;28;20603;-72
2023/03/17 02:33:07;;;;;;;1.80;1.70;;;;;;;5.24;nan;-23963.09;5011334;28;20180;-75
2023/03/17 02:35:32;;;;;;;1.90;1.80;;;;;;;4.95;nan;-23954.84;5012220;28;20238;-74
2023/03/17 02:37:58;;;;;;;1.40;1.30;;;;;;;4.67;nan;-23946.88;5011083;28;20274;-71
2023/03/17 02:40:23;;;;;;;2.70;2.10;;;;;;;5.40;nan;-23967.50;5011474;28;20202;-74
2023/03/17 02:42:50;;;;;;;1.87;1.73;;;;;;;5.08;nan;-23958.53;5011612;28;20164;-74
2023/03/17 02:45:16;;;;;;;1.60;1.50;;;;;;;5.35;nan;-23966.09;5011523;28;20186;-74
2023/03/17 02:47:41;;;;;;;2.43;2.20;;;;;;;5.14;nan;-23960.09;5012669;28;20181;-70
2023/03/17 02:50:16;;;;;;;2.90;2.17;;;;;;;5.32;nan;-23965.38;5011409;28;20706;-72
2023/03/17 02:52:42;;;;;;;1.77;1.67;;;;;;;4.95;nan;-23954.84;5011509;28;20172;-71
2023/03/17 02:55:09;;;;;;;1.67;1.53;;;;;;;4.98;nan;-23955.56;5011585;28;20175;-73
2023/03/17 02:57:34;;;;;;;2.00;1.53;;;;;;;4.96;nan;-23955.00;5004772;28;20227;-71
2023/03/17 03:00:00;;;;;;;1.63;1.53;;;;;;;5.31;nan;-23964.94;5009694;28;20210;-73
2023/03/17 03:02:25;;;;;;;1.57;1.47;;;;;;;5.20;nan;-23961.97;5010973;28;20175;-73
2023/03/17 03:04:52;;;;;;;2.17;1.87;;;;;;;5.04;nan;-23957.41;5011152;28;20210;-73
2023/03/17 03:07:17;;;;;;;2.03;1.83;;;;;;;5.13;nan;-23959.81;5026563;28;20187;-71
2023/03/17 03:09:43;;;;;;;2.20;1.63;;;;;;;5.21;nan;-23962.25;5011042;28;20214;-74
2023/03/17 03:12:10;;;;;;;1.90;1.80;;;;;;;4.97;nan;-23955.41;5010111;28;20164;-72
2023/03/17 03:14:35;;;;;;;1.83;1.70;;;;;;;5.02;nan;-23956.84;5011338;28;20184;-73
2023/03/17 03:17:01;;;;;;;1.67;1.57;;;;;;;5.31;nan;-23965.09;5011347;28;20176;-71
2023/03/17 03:19:27;;;;;;;1.77;1.30;;;;;;;4.97;nan;-23955.28;5011597;28;20169;-74
2023/03/17 03:21:52;;;;;;;1.87;1.73;;;;;;;5.23;nan;-23962.81;5011588;28;20257;-72
2023/03/17 03:24:17;;;;;;;1.30;1.20;;;;;;;5.00;nan;-23956.25;5011204;28;20211;-70
2023/03/17 03:26:43;;;;;;;1.50;1.40;;;;;;;5.27;nan;-23963.94;5011764;28;20231;-72
2023/03/17 03:29:08;;;;;;;1.93;1.70;;;;;;;4.91;nan;-23953.72;5009485;28;20240;-72
2023/03/17 03:31:34;;;;;;;1.60;1.40;;;;;;;5.24;nan;-23963.09;5010227;28;20214;-70
2023/03/17 03:33:59;;;;;;;1.47;1.37;;;;;;;5.47;nan;-23969.34;5005553;28;20179;-71
2023/03/17 03:36:25;;;;;;;1.90;1.63;;;;;;;5.09;nan;-23958.69;5014638;28;20572;-74
2023/03/17 03:38:51;;;;;;;1.90;1.67;;;;;;;5.42;nan;-23968.06;5015127;28;20604;-71
2023/03/17 03:41:17;;;;;;;2.10;1.90;;;;;;;5.51;nan;-23970.47;5015079;28;20179;-74
2023/03/17 03:43:43;;;;;;;2.37;1.80;;;;;;;5.41;nan;-23967.78;5013420;28;20179;-74
2023/03/17 03:46:08;;;;;;;1.80;1.70;;;;;;;5.33;nan;-23965.66;5014656;28;20176;-75
2023/03/17 03:48:33;;;;;;;1.40;1.30;;;;;;;5.24;nan;-23963.09;5014884;28;20180;-71
2023/03/17 03:51:01;;;;;;;2.17;1.80;;;;;;;5.13;nan;-23959.97;5014687;28;20219;-71
2023/03/17 03:53:27;;;;;;;2.53;1.80;;;;;;;5.46;nan;-23969.06;5015724;28;20173;-73
2023/03/17 03:55:54;;;;;;;1.50;1.40;;;;;;;5.43;nan;-23968.34;5015517;28;20187;-70
2023/03/17 03:58:19;;;;;;;1.90;1.77;;;;;;;5.16;nan;-23960.69;5015245;28;20252;-72
2023/03/17 04:00:45;;;;;;;1.97;1.77;;;;;;;5.38;nan;-23966.78;5014802;28;20675;-72
2023/03/17 04:03:11;;;;;;;1.60;1.50;;;;;;;5.40;nan;-23967.38;5014956;28;20186;-73
2023/03/17 04:05:37;;;;;;;1.30;1.20;;;;;;;5.32;nan;-23965.38;5013432;28;20180;-75
2023/03/17 04:08:03;;;;;;;1.27;1.27;;;;;;;5.32;nan;-23965.22;5014596;28;20706;-72
2023/03/17 04:10:28;;;;;;;1.60;1.50;;;;;;;5.04;nan;-23957.25;5008639;28;20717;-74
2023/03/17 04:12:54;;;;;;;2.13;1.93;;;;;;;5.03;nan;-23957.13;5014419;28;20193;-74
2023/03/17 04:15:20;;;;;;;1.60;1.50;;;;;;;5.24;nan;-23963.09;5009824;28;20177;-72
2023/03/17 04:17:46;;;;;;;1.83;1.73;;;;;;;5.25;nan;-23963.38;4999589;28;20643;-72
2023/03/17 04:20:13;;;;;;;1.70;1.60;;;;;;;5.35;nan;-23966.09;5012974;28;20175;-72
2023/03/17 04:22:40;;;;;;;2.00;1.80;;;;;;;5.28;nan;-23964.22;5006898;28;20662;-70
2023/03/17 04:25:07;;;;;;;1.80;1.70;;;;;;;5.25;nan;-23963.38;4999887;28;20184;-71
2023/03/17 04:27:33;;;;;;;1.80;1.57;;;;;;;5.27;nan;-23963.81;5000857;28;20615;-73
2023/03/17 04:29:58;;;;;;;1.67;1.57;;;;;;;5.10;nan;-23958.97;5015890;28;20211;-73
2023/03/17 04:32:24;;;;;;;1.87;1.33;;;;;;;;;;5001485;28;20276;-76
2023/03/17 04:34:50;;;;;;;2.03;1.70;;;;;;;5.14;nan;-23960.25;4999345;28;20677;-74
2023/03/17 04:37:18;;;;;;;2.03;1.73;;;;;;;5.29;nan;-23964.50;5012426;28;20188;-72
2023/03/17 04:39:47;;;;;;;1.97;1.87;;;;;;;4.96;nan;-23955.13;5000105;28;20187;-72
2023/03/17 04:42:13;;;;;;;1.90;1.80;;;;;;;5.37;nan;-23966.66;4998386;28;20180;-76
2023/03/17 04:44:38;;;;;;;1.70;1.60;;;;;;;5.36;nan;-23966.38;4999099;28;20365;-73
2023/03/17 04:47:10;;;;;;;2.50;1.87;;;;;;;5.47;nan;-23969.34;4998980;28;20570;-72
2023/03/17 04:49:35;;;;;;;2.23;1.83;;;;;;;5.50;nan;-23970.34;4998962;28;20233;-72
2023/03/17 04:52:01;;;;;;;1.53;1.43;;;;;;;5.20;nan;-23961.81;5000322;28;20742;-72
2023/03/17 04:54:26;;;;;;;2.03;1.77;;;;;;;5.67;nan;-23975.19;4999116;28;20672;-73
2023/03/17 04:56:52;;;;;;;2.00;1.80;;;;;;;5.52;nan;-23970.78;4998324;28;20275;-74
2023/03/17 04:59:18;;;;;;;2.27;1.83;;;;;;;5.38;nan;-23966.78;4999617;28;20288;-73
2023/03/17 05:01:44;;;;;;;1.70;1.60;;;;;;;5.62;nan;-23973.75;5000782;28;20267;-74
2023/03/17 05:04:11;;;;;;;1.97;1.87;;;;;;;5.57;nan;-23972.34;5015426;28;20656;-72
2023/03/17 05:06:36;;;;;;;1.50;1.40;;;;;;;5.46;nan;-23969.06;5001152;28;20176;-70
2023/03/17 05:09:02;;;;;;;1.87;1.70;;;;;;;5.73;nan;-23976.88;5017606;28;20192;-71
2023/03/17 05:11:28;;;;;;;1.87;1.67;;;;;;;5.71;nan;-23976.16;5016286;28;20212;-71
2023/03/17 05:13:54;;;;;;;2.03;1.73;;;;;;;5.67;nan;-23975.03;5003447;28;20191;-72
2023/03/17 05:16:19;;;;;;;3.30;2.00;;;;;;;5.41;nan;-23967.66;5007734;28;20564;-75
2023/03/17 05:18:45;;;;;;;2.30;1.70;;;;;;;5.84;nan;-23979.88;5012994;28;20180;-72
2023/03/17 05:21:11;;;;;;;3.17;2.10;;;;;;;5.68;nan;-23975.47;5012562;28;20180;-74
2023/03/17 05:23:37;;;;;;;4.13;2.20;;;;;;;5.90;nan;-23981.44;5010490;28;20655;-76
2023/03/17 05:26:02;;;;;;;1.70;1.50;;;;;;;5.68;nan;-23975.31;5028225;28;20206;-74
2023/03/17 05:28:28;;;;;;;1.60;1.50;;;;;;;6.07;nan;-23986.41;5013031;28;20180;-74
2023/03/17 05:30:54;;;;;;;1.90;1.60;;;;;;;5.96;nan;-23983.28;5012644;28;20204;-72
2023/03/17 05:33:20;;;;;;;3.13;2.37;;;;;;;6.18;nan;-23989.53;5012876;28;20547;-72
2023/03/17 05:35:46;;;;;;;2.77;2.20;;;;;;;6.22;nan;-23990.66;5028018;28;20216;-73
2023/03/17 05:38:14;;;;;;;2.40;2.00;;;;;;;6.02;nan;-23984.84;5012784;28;20187;-76
2023/03/17 05:40:39;;;;;;;1.70;1.60;;;;;;;6.29;nan;-23992.50;5012340;28;20172;-75
2023/03/17 05:43:06;;;;;;;2.40;2.00;;;;;;;6.46;nan;-23997.34;5010447;28;20662;-76
2023/03/17 05:45:32;;;;;;;4.07;2.50;;;;;;;6.24;nan;-23991.09;5012306;28;20218;-72
2023/03/17 05:47:57;;;;;;;3.87;2.23;;;;;;;6.27;nan;-23991.81;5010838;28;20603;-72
2023/03/17 05:50:23;;;;;;;2.57;2.27;;;;;;;6.60;nan;-24001.19;5005826;28;20363;-74
2023/03/17 05:52:51;;;;;;;3.80;2.33;;;;;;;6.69;nan;-24003.72;5006081;28;20192;-72
2023/03/17 05:55:17;;;;;;;2.47;2.03;;;;;;;6.62;nan;-24001.88;5010924;28;20191;-76
2023/03/17 05:57:43;;;;;;;2.53;1.97;;;;;;;6.91;nan;-24009.97;5009759;28;20314;-74
2023/03/17 06:00:10;;;;;;;3.33;2.23;;;;;;;7.23;nan;-24018.75;5012340;28;20247;-72
2023/03/17 06:02:36;;;;;;;2.60;1.90;;;;;;;7.22;nan;-24018.63;5011766;28;20238;-72
2023/03/17 06:05:03;;;;;;;3.83;2.00;;;;;;;7.29;nan;-24020.47;5012562;28;20628;-73
2023/03/17 06:07:28;;;;;;;2.50;2.27;;;;;;;7.48;nan;-24025.84;5009689;28;20610;-70
2023/03/17 06:09:54;;;;;;;2.43;1.87;;;;;;;7.26;nan;-24019.63;5012229;28;20200;-72
2023/03/17 06:12:20;;;;;;;4.60;2.23;;;;;;;6.54;nan;-23999.47;5012097;28;20168;-72
2023/03/17 06:14:46;;;;;;;3.40;2.23;;;;;;;7.59;nan;-24028.97;5011764;28;20650;-73
2023/03/17 06:17:11;;;;;;;4.57;2.53;;;;;;;7.52;nan;-24026.97;5011583;28;20258;-70
2023/03/17 06:19:37;;;;;;;2.93;2.37;;;;;;;7.48;nan;-24025.84;5011244;28;20180;-72
2023/03/17 06:22:02;;;;;;;3.07;2.73;;;;;;;7.84;nan;-24035.91;5011305;28;20176;-72
2023/03/17 06:24:28;;;;;;;2.57;2.30;;;;;;;7.62;nan;-24029.81;5011583;28;20172;-72
2023/03/17 06:26:53;;;;;;;3.73;2.57;;;;;;;8.02;nan;-24041.00;5010361;28;20248;-73
2023/03/17 06:29:19;;;;;;;2.60;2.27;;;;;;;7.99;nan;-24040.16;5010967;28;20172;-71
2023/03/17 06:31:49;;;;;;;2.90;2.30;;;;;;;8.17;nan;-24045.13;5010545;28;20218;-74
2023/03/17 06:34:18;;;;;;;5.20;2.40;;;;;;;7.94;nan;-24038.88;5012061;28;20263;-73
2023/03/17 06:36:44;;;;;;;2.73;2.30;;;;;;;8.13;nan;-24044.00;5011264;28;20180;-71
2023/03/17 06:39:11;;;;;;;3.00;2.50;;;;;;;8.27;nan;-24047.94;5011400;28;20238;-71
2023/03/17 06:41:36;;;;;;;3.47;2.40;;;;;;;8.07;nan;-24042.44;5011612;28;20180;-72
2023/03/17 06:44:04;;;;;;;3.87;2.20;;;;;;;8.04;nan;-24041.44;5011441;28;20611;-73
2023/03/17 06:46:30;;;;;;;3.00;2.70;;;;;;;7.89;nan;-24037.47;5004193;28;20191;-69
2023/03/17 06:48:56;;;;;;;6.13;2.63;;;;;;;7.83;nan;-24035.78;5010355;28;20274;-73
2023/03/17 06:51:21;;;;;;;3.23;2.10;;;;;;;8.23;nan;-24046.97;5010838;28;20286;-74
2023/03/17 06:53:47;;;;;;;5.37;3.00;;;;;;;8.45;nan;-24052.91;5010839;28;20647;-74
2023/03/17 06:56:12;;;;;;;5.83;2.50;;;;;;;8.40;nan;-24051.63;5011773;28;20180;-76
2023/03/17 06:58:38;;;;;;;3.17;2.30;;;;;;;8.57;nan;-24056.44;5010042;28;20608;-74
2023/03/17 07:01:06;;;;;;;3.27;2.50;;;;;;;8.55;nan;-24055.88;5011879;28;20172;-74
2023/03/17 07:03:35;;;;;;;4.00;2.40;;;;;;;8.42;nan;-24052.34;5011495;28;20203;-73
2023/03/17 07:06:00;;;;;;;2.70;2.50;;;;;;;8.63;nan;-24058.00;5010857;28;20175;-73
2023/03/17 07:08:26;;;;;;;3.80;2.80;;;;;;;8.57;nan;-24056.31;5011915;28;20172;-74
2023/03/17 07:10:57;;;;;;;2.83;2.43;;;;;;;9.07;nan;-24070.44;5016049;28;20199;-74
2023/03/17 07:13:23;;;;;;;3.73;2.53;;;;;;;9.24;nan;-24075.25;5016393;28;20167;-74
2023/03/17 07:15:49;;;;;;;2.53;2.17;;;;;;;9.11;nan;-24071.44;5015424;28;20179;-72
2023/03/17 07:18:15;;;;;;;2.47;2.10;;;;;;;8.98;nan;-24067.75;5015279;28;20168;-74
2023/03/17 07:20:41;;;;;;;2.77;2.27;;;;;;;9.07;nan;-24070.44;5015107;28;20164;-72
2023/03/17 07:23:13;;;;;;;3.43;2.30;;;;;;;9.60;nan;-24085.16;5015582;28;20186;-71
2023/03/17 07:25:42;;;;;;;4.03;2.63;;;;;;;9.97;nan;-24095.59;5015333;28;20627;-73
2023/03/17 07:28:08;;;;;;;2.65;2.40;;;;;;;10.26;nan;-24103.66;5015160;28;20180;-72
2023/03/17 07:30:33;;;;;;;3.28;2.38;;;;;;;10.27;nan;-24103.78;5013681;28;20203;-71
2023/03/17 07:32:59;;;;;;;2.53;1.92;;;;;;;10.75;nan;-24117.19;5014708;28;20182;-74
2023/03/17 07:35:24;;;;;;;2.88;2.05;;;;;;;11.21;nan;-24130.03;5015327;28;20174;-72
2023/03/17 07:37:50;;;;;;;2.80;2.47;;;;;;;11.04;nan;-24125.38;5015693;28;20172;-74
2023/03/17 07:40:17;;;;;;;2.90;2.30;;;;;;;11.06;nan;-24125.94;5014684;28;20188;-75
2023/03/17 07:42:44;;;;;;;8.38;2.88;;;;;;;11.12;nan;-24127.50;5024378;28;20200;-76
2023/03/17 07:45:10;;;;;;;3.90;2.72;;;;;;;10.82;nan;-24119.19;5015118;28;20184;-75
2023/03/17 07:47:35;;;;;;;4.18;2.58;;;;;;;10.92;nan;-24122.00;5014885;28;20176;-72
2023/03/17 07:50:01;;;;;;;4.03;2.72;;;;;;;11.10;nan;-24126.94;5014936;28;20234;-72
2023/03/17 07:52:26;;;;;;;3.10;2.58;;;;;;;10.96;nan;-24123.25;5014936;28;20204;-73
2023/03/17 07:54:52;;;;;;;5.30;2.88;;;;;;;11.00;nan;-24124.41;5012890;28;20185;-73
2023/03/17 07:57:17;;;;;;;4.32;2.70;;;;;;;11.57;nan;-24140.03;5013063;28;20319;-74
2023/03/17 07:59:43;;;;;;;3.63;2.50;;;;;;;11.62;nan;-24141.59;5014741;28;20176;-75
2023/03/17 08:02:18;;;;;;;3.13;2.40;;;;;;;11.45;nan;-24136.94;5014559;28;20211;-72
2023/03/17 08:04:44;;;;;;;4.00;2.50;;;;;;;11.63;nan;-24141.72;5013273;28;20715;-75
2023/03/17 08:07:11;;;;;;;4.03;2.30;;;;;;;12.00;nan;-24152.16;5014412;28;20187;-74
2023/03/17 08:09:37;;;;;;;2.92;2.13;;;;;;;12.38;nan;-24162.84;5014394;28;20272;-73
2023/03/17 08:12:03;;;;;;;2.55;2.08;;;;;;;12.33;nan;-24161.31;5012928;28;20759;-72
2023/03/17 08:14:29;;;;;;;2.28;2.03;;;;;;;12.65;nan;-24170.16;5014120;28;20171;-72
2023/03/17 08:16:55;;;;;;;4.50;2.00;;;;;;;12.97;nan;-24179.16;5014222;28;20230;-74
2023/03/17 08:19:21;;;;;;;1.73;1.52;;;;;;;13.35;nan;-24189.56;5014714;28;20520;-73
2023/03/17 08:21:47;;;;;;;2.80;2.00;;;;;;;13.40;nan;-24190.97;5013330;28;20179;-73
2023/03/17 08:24:12;;;;;;;1.77;1.60;;;;;;;13.52;nan;-24194.34;5014098;28;20176;-73
2023/03/17 08:26:38;;;;;;;3.75;2.15;;;;;;;12.89;nan;-24176.91;5014100;28;20223;-74
2023/03/17 08:29:03;;;;;;;3.25;2.13;;;;;;;12.50;nan;-24166.09;5014045;28;20251;-72
2023/03/17 08:31:29;;;;;;;3.70;2.33;;;;;;;12.74;nan;-24172.69;5012060;28;20564;-72
2023/03/17 08:33:57;;;;;;;3.55;2.20;;;;;;;13.42;nan;-24191.66;5013743;28;20168;-72
2023/03/17 08:36:23;;;;;;;3.58;2.45;;;;;;;13.36;nan;-24189.84;5012648;28;20184;-73
2023/03/17 08:38:49;;;;;;;3.10;2.20;;;;;;;13.02;nan;-24180.56;5013572;28;20507;-73
2023/03/17 08:41:17;;;;;;;2.25;1.80;;;;;;;12.62;nan;-24169.47;5013147;28;20187;-75
2023/03/17 08:43:43;;;;;;;3.53;2.45;;;;;;;11.74;nan;-24144.97;5013717;28;20180;-71
2023/03/17 08:46:16;;;;;;;3.35;2.22;;;;;;;12.00;nan;-24152.16;5013567;28;20187;-72
2023/03/17 08:48:44;;;;;;;4.43;2.53;;;;;;;12.02;nan;-24152.56;5013507;28;20291;-72
2023/03/17 08:51:09;;;;;;;3.60;2.45;;;;;;;11.96;nan;-24151.03;5013342;28;20207;-73
2023/03/17 08:53:36;;;;;;;2.17;1.98;;;;;;;12.12;nan;-24155.38;5013631;28;20182;-73
2023/03/17 08:56:03;;;;;;;3.75;2.42;;;;;;;12.06;nan;-24153.69;5013402;28;20649;-74
2023/03/17 08:58:28;;;;;;;2.83;2.10;;;;;;;11.70;nan;-24143.69;5013275;28;20247;-74
2023/03/17 09:00:57;;;;;;;3.30;2.38;;;;;;;11.93;nan;-24150.31;5013055;28;20211;-74
2023/03/17 09:03:23;;;;;;;2.15;1.88;;;;;;;11.36;nan;-24134.41;5011551;28;20495;-73
2023/03/17 09:05:50;;;;;;;2.35;1.92;;;;;;;10.87;nan;-24120.72;5011575;28;20179;-73
2023/03/17 09:08:16;;;;;;;2.15;1.95;;;;;;;10.94;nan;-24122.56;5013127;28;20199;-71
2023/03/17 09:10:41;;;;;;;2.35;1.90;;;;;;;10.94;nan;-24122.56;5013162;28;20203;-74
2023/03/17 09:13:08;;;;;;;2.00;1.80;;;;;;;10.57;nan;-24112.25;5012791;28;20222;-74
2023/03/17 09:15:33;;;;;;;3.10;2.08;;;;;;;10.26;nan;-24103.66;5013101;28;20168;-72
2023/03/17 09:18:00;;;;;;;3.20;2.30;;;;;;;10.41;nan;-24107.88;5012395;28;20167;-71
2023/03/17 09:20:26;;;;;;;1.75;1.60;;;;;;;10.84;nan;-24119.88;5012519;28;20176;-72
2023/03/17 09:22:51;;;;;;;2.22;1.92;;;;;;;11.05;nan;-24125.66;5012931;28;20225;-70
2023/03/17 09:25:17;;;;;;;2.03;1.90;;;;;;;11.08;nan;-24126.50;5013008;28;20186;-71
2023/03/17 09:27:43;;;;;;;1.88;1.60;;;;;;;11.30;nan;-24132.56;5012259;28;20187;-71
2023/03/17 09:30:12;;;;;;;2.15;1.83;;;;;;;11.44;nan;-24136.50;5012308;28;20203;-73
2023/03/17 09:32:38;;;;;;;3.63;1.80;;;;;;;12.52;nan;-24166.66;5011498;28;20172;-71
2023/03/17 09:35:04;;;;;;;2.85;2.05;;;;;;;13.08;nan;-24182.25;5012186;28;20651;-71
2023/03/17 09:37:30;;;;;;;2.30;1.90;;;;;;;13.04;nan;-24181.00;5012392;28;20226;-73
2023/03/17 09:39:56;;;;;;;3.20;2.22;;;;;;;13.54;nan;-24194.91;5008065;28;20968;-70
2023/03/17 09:42:46;;;;;;;2.22;1.75;;;;;;;14.07;nan;-24209.78;5012592;28;20180;-72
2023/03/17 09:45:33;;;;;;;2.92;2.08;;;;;;;14.28;nan;-24215.53;5012324;28;20179;-72
2023/03/17 09:48:10;;;;;;;3.63;2.38;;;;;;;13.81;nan;-24202.34;5012529;28;20211;-73
2023/03/17 09:50:45;;;;;;;2.15;1.90;;;;;;;13.87;nan;-24204.16;5011984;28;20199;-72
2023/03/17 09:53:17;;;;;;;2.45;2.00;;;;;;;13.73;nan;-24200.25;5012141;28;20250;-75
2023/03/17 09:55:44;;;;;;;2.65;2.10;;;;;;;13.83;nan;-24202.91;5012584;28;20647;-74
2023/03/17 09:58:10;;;;;;;3.38;2.15;;;;;;;13.70;nan;-24199.41;5003231;28;20687;-73
2023/03/17 10:00:36;;;;;;;2.22;1.75;;;;;;;14.02;nan;-24208.25;5012421;28;20221;-71
2023/03/17 10:03:02;;;;;;;2.03;1.70;;;;;;;14.02;nan;-24208.25;5012045;28;20187;-71
2023/03/17 10:05:30;;;;;;;2.58;2.03;;;;;;;13.63;nan;-24197.44;5012102;28;20210;-73
2023/03/17 10:08:14;;;;;;;2.50;1.90;;;;;;;13.56;nan;-24195.47;5012147;28;20176;-72
2023/03/17 10:10:53;;;;;;;2.33;2.05;;;;;;;13.86;nan;-24203.88;5012224;28;20195;-71
2023/03/17 10:13:50;;;;;;;2.28;2.03;;;;;;;14.16;nan;-24212.16;5012334;28;20164;-72
2023/03/17 10:16:21;;;;;;;2.08;1.70;;;;;;;14.01;nan;-24208.09;5012177;28;20172;-70
2023/03/17 10:19:03;;;;;;;4.63;2.80;;;;;;;13.88;nan;-24204.31;5012369;28;20195;-75
2023/03/17 10:21:32;;;;;;;2.58;1.80;;;;;;;13.98;nan;-24207.13;5009020;28;20601;-73
2023/03/17 10:23:59;;;;;;;2.17;1.85;;;;;;;13.91;nan;-24205.16;5011841;28;20271;-72
2023/03/17 10:26:39;;;;;;;1.75;1.63;;;;;;;13.67;nan;-24198.56;5011844;28;20180;-71
2023/03/17 10:29:14;;;;;;;3.25;1.80;;;;;;;13.73;nan;-24200.25;5012222;28;20186;-71
2023/03/17 10:31:39;;;;;;;2.80;1.67;;;;;;;13.23;nan;-24186.47;5012391;28;20230;-72
2023/03/17 10:34:12;;;;;;;2.65;1.90;;;;;;;12.20;nan;-24157.66;5011191;28;20215;-72
2023/03/17 10:36:41;;;;;;;3.17;2.25;;;;;;;12.19;nan;-24157.50;5011416;28;20204;-72
2023/03/17 10:39:11;;;;;;;1.85;1.65;;;;;;;12.39;nan;-24163.00;5011016;28;20172;-72
2023/03/17 10:41:40;;;;;;;2.08;1.90;;;;;;;12.58;nan;-24168.34;5011348;28;20596;-74
2023/03/17 10:44:20;;;;;;;1.88;1.70;;;;;;;12.65;nan;-24170.16;5010962;28;20157;-74
2023/03/17 10:46:53;;;;;;;2.05;1.75;;;;;;;12.68;nan;-24171.00;5010847;28;20180;-73
2023/03/17 10:49:22;;;;;;;2.08;1.65;;;;;;;12.87;nan;-24176.22;5011132;28;20172;-73
2023/03/17 10:51:52;;;;;;;3.35;2.10;;;;;;;13.31;nan;-24188.44;5011155;28;20806;-71
2023/03/17 10:54:20;;;;;;;2.30;2.10;;;;;;;13.08;nan;-24182.13;5011681;28;20222;-73
2023/03/17 10:56:48;;;;;;;2.22;1.90;;;;;;;13.31;nan;-24188.59;5011677;28;20227;-70
2023/03/17 10:59:19;;;;;;;2.03;1.67;;;;;;;12.98;nan;-24179.44;5011559;28;20169;-73
2023/03/17 11:02:17;;;;;;;1.88;1.67;;;;;;;13.32;nan;-24188.72;5011353;28;20643;-76
2023/03/17 11:04:43;;;;;;;2.72;1.77;;;;;;;13.15;nan;-24184.22;5011116;28;20187;-72
2023/03/17 11:07:16;;;;;;;2.08;1.65;;;;;;;13.65;nan;-24198.00;5010211;28;20635;-76
2023/03/17 11:09:42;;;;;;;2.60;1.75;;;;;;;13.39;nan;-24190.84;5011782;28;20172;-71
2023/03/17 11:12:48;;;;;;;2.45;1.98;;;;;;;13.54;nan;-24194.91;5011269;28;20179;-74
2023/03/17 11:15:16;;;;;;;2.05;1.58;;;;;;;13.41;nan;-24191.25;5011400;28;20278;-73
2023/03/17 11:18:22;;;;;;;2.38;1.88;;;;;;;13.85;nan;-24203.47;5011223;28;20184;-74
2023/03/17 11:21:12;;;;;;;1.90;1.70;;;;;;;14.02;nan;-24208.38;5011353;28;20262;-71
2023/03/17 11:24:04;;;;;;;2.10;1.90;;;;;;;14.24;nan;-24214.41;5010951;28;20656;-74
2023/03/17 11:27:25;;;;;;;2.80;1.90;;;;;;;13.85;nan;-24203.47;5011572;28;20345;-72
2023/03/17 11:30:09;;;;;;;2.70;1.98;;;;;;;13.50;nan;-24193.78;5009431;28;20196;-72
2023/03/17 11:32:42;;;;;;;1.85;1.48;;;;;;;13.36;nan;-24189.84;5011032;28;20176;-73
2023/03/17 11:35:32;;;;;;;2.17;1.88;;;;;;;12.89;nan;-24176.78;5011445;28;20194;-71
2023/03/17 11:38:25;;;;;;;1.98;1.85;;;;;;;12.73;nan;-24172.41;5011831;28;20164;-75
2023/03/17 11:41:19;;;;;;;2.55;1.80;;;;;;;12.99;nan;-24179.72;5010525;28;20179;-75
2023/03/17 11:44:22;;;;;;;7.85;3.92;;;;;;;13.16;nan;-24184.38;5025444;28;20180;-74
2023/03/17 11:47:23;;;;;;;2.63;2.25;;;;;;;13.08;nan;-24182.13;5010457;28;20164;-75
2023/03/17 11:50:11;;;;;;;2.95;1.83;;;;;;;13.50;nan;-24193.91;5010557;28;20554;-71
2023/03/17 11:53:01;;;;;;;2.85;1.88;;;;;;;12.96;nan;-24178.88;5010888;28;20190;-72
2023/03/17 11:55:41;;;;;;;2.78;2.03;;;;;;;13.29;nan;-24188.03;5011536;28;20176;-73